Time;durP1;ratioP1;P1;durP2;ratioP2;P2;SDS_P1;SDS_P2;PMS_P1;PMS_P2;Temp;Humidity;BMP_temperature;BMP_pressure;BME280_temperature;BME280_humidity;BME280_pressure;Samples;Min_cycle;Max_cycle;Signal;HPM_P1;HPM_P2
2021/08/22 00:01:50;;;;;;;6.97;6.10;;;21.60;99.90;;;;;;5035693;28;20165;-80
2021/08/22 00:04:16;;;;;;;6.77;6.00;;;21.50;99.90;;;;;;5035095;28;20181;-80
2021/08/22 00:06:42;;;;;;;5.90;5.30;;;21.50;99.90;;;;;;5035265;28;20701;-80
2021/08/22 00:09:08;;;;;;;5.67;4.67;;;21.50;99.90;;;;;;5052911;28;20701;-80
2021/08/22 00:11:34;;;;;;;4.77;4.37;;;21.50;99.90;;;;;;5053407;28;20176;-80
2021/08/22 00:13:59;;;;;;;6.43;4.40;;;21.50;99.90;;;;;;5053040;28;20164;-80
2021/08/22 00:16:25;;;;;;;7.23;4.97;;;21.50;99.90;;;;;;5034962;28;20241;-80
2021/08/22 00:18:51;;;;;;;5.93;5.10;;;21.50;99.90;;;;;;5052903;28;20185;-80
2021/08/22 00:21:17;;;;;;;5.53;5.03;;;21.50;99.90;;;;;;5018549;28;20223;-80
2021/08/22 00:23:42;;;;;;;6.00;4.60;;;21.50;99.90;;;;;;5053081;28;20184;-80
2021/08/22 00:26:08;;;;;;;7.00;5.10;;;21.40;99.90;;;;;;5035148;28;20193;-81
2021/08/22 00:28:33;;;;;;;4.63;4.23;;;21.50;99.90;;;;;;5056464;28;20750;-80
2021/08/22 00:30:59;;;;;;;3.80;3.50;;;21.50;99.90;;;;;;5018495;28;20195;-81
2021/08/22 00:33:25;;;;;;;5.00;4.50;;;21.50;99.90;;;;;;5034900;28;20597;-81
2021/08/22 00:35:51;;;;;;;7.70;4.50;;;21.40;99.90;;;;;;5034328;28;20537;-81
2021/08/22 00:38:16;;;;;;;4.93;4.47;;;21.40;99.90;;;;;;5052691;28;20582;-81
2021/08/22 00:40:42;;;;;;;4.40;3.97;;;21.40;99.90;;;;;;5052464;28;20200;-81
2021/08/22 00:43:08;;;;;;;5.80;3.97;;;21.30;99.90;;;;;;5034846;28;20169;-81
2021/08/22 00:45:37;;;;;;;5.40;4.73;;;21.30;99.90;;;;;;5052007;28;20169;-80
2021/08/22 00:48:03;;;;;;;6.10;4.77;;;21.20;99.90;;;;;;5052456;28;20189;-80
2021/08/22 00:50:29;;;;;;;10.37;5.10;;;21.10;99.90;;;;;;5034403;28;20702;-80
2021/08/22 00:52:54;;;;;;;5.40;4.73;;;21.10;99.90;;;;;;5034707;28;20741;-80
2021/08/22 00:55:21;;;;;;;5.63;4.97;;;21.10;99.90;;;;;;5051201;28;20255;-80
2021/08/22 00:57:49;;;;;;;5.73;4.87;;;21.00;99.90;;;;;;5052283;28;20188;-80
2021/08/22 01:00:16;;;;;;;4.47;4.07;;;21.00;99.90;;;;;;5034276;28;20713;-80
2021/08/22 01:02:59;;;;;;;5.67;4.83;;;21.00;99.90;;;;;;5052182;28;20571;-80
2021/08/22 01:05:49;;;;;;;5.20;4.70;;;21.00;99.90;;;;;;5055239;28;20933;-80
2021/08/22 01:08:19;;;;;;;7.40;4.17;;;21.00;99.90;;;;;;5034176;28;21249;-80
2021/08/22 01:10:46;;;;;;;4.17;3.77;;;20.90;99.90;;;;;;5052482;28;20616;-80
2021/08/22 01:13:17;;;;;;;6.93;4.00;;;20.90;99.90;;;;;;5051963;28;20560;-80
2021/08/22 01:15:47;;;;;;;2.53;2.33;;;20.90;99.90;;;;;;5051831;28;20564;-80
2021/08/22 01:18:17;;;;;;;3.30;2.83;;;21.00;99.90;;;;;;5034620;28;20602;-80
2021/08/22 01:20:54;;;;;;;4.53;3.40;;;21.00;99.90;;;;;;5052165;28;20651;-81
2021/08/22 01:23:21;;;;;;;3.43;3.03;;;20.90;99.90;;;;;;5051875;28;20578;-81
2021/08/22 01:25:49;;;;;;;3.40;2.60;;;20.90;99.90;;;;;;5033879;28;20685;-80
2021/08/22 01:28:15;;;;;;;3.97;3.40;;;21.00;99.90;;;;;;5050218;28;20615;-80
2021/08/22 01:30:48;;;;;;;4.27;3.10;;;20.90;99.90;;;;;;5052070;28;20661;-81
2021/08/22 01:33:17;;;;;;;3.80;3.20;;;21.00;99.90;;;;;;5051837;28;20572;-80
2021/08/22 01:35:44;;;;;;;2.67;2.47;;;20.90;99.90;;;;;;5051630;28;20576;-80
2021/08/22 01:38:10;;;;;;;3.97;3.07;;;20.90;99.90;;;;;;5051642;28;20597;-80
2021/08/22 01:40:37;;;;;;;3.20;2.63;;;20.90;99.90;;;;;;5037437;28;20576;-80
2021/08/22 01:43:04;;;;;;;2.80;2.50;;;20.90;99.90;;;;;;5051698;28;20579;-80
2021/08/22 01:45:32;;;;;;;2.93;2.50;;;20.90;99.90;;;;;;5033461;28;20626;-80
2021/08/22 01:47:59;;;;;;;2.90;2.50;;;20.90;99.90;;;;;;5051613;28;20602;-80
2021/08/22 01:50:25;;;;;;;3.57;2.50;;;20.90;99.90;;;;;;5050088;28;21016;-80
2021/08/22 01:53:00;;;;;;;3.47;3.17;;;20.90;99.90;;;;;;5051914;28;20571;-81
2021/08/22 01:55:26;;;;;;;3.90;2.47;;;20.90;99.90;;;;;;5051033;28;20610;-80
2021/08/22 01:57:52;;;;;;;3.70;2.80;;;20.80;99.90;;;;;;5051214;28;20603;-81
2021/08/22 02:00:18;;;;;;;3.40;2.90;;;20.80;99.90;;;;;;5050954;28;20184;-81
2021/08/22 02:02:59;;;;;;;2.20;1.90;;;20.80;99.90;;;;;;5051340;28;20564;-81
2021/08/22 02:05:27;;;;;;;2.70;2.50;;;20.70;99.90;;;;;;5033311;28;20188;-81
2021/08/22 02:07:53;;;;;;;2.50;2.00;;;20.70;99.90;;;;;;5054877;28;20595;-81
2021/08/22 02:10:25;;;;;;;5.03;2.70;;;20.70;99.90;;;;;;5055657;28;20843;-81
2021/08/22 02:12:54;;;;;;;3.87;2.00;;;20.60;99.90;;;;;;5037735;28;20587;-81
2021/08/22 02:15:25;;;;;;;3.20;2.30;;;20.60;99.90;;;;;;5037246;28;21130;-81
2021/08/22 02:18:01;;;;;;;3.03;2.67;;;20.60;99.90;;;;;;5059215;28;20595;-81
2021/08/22 02:20:28;;;;;;;2.97;2.60;;;20.50;99.90;;;;;;5037698;28;20575;-81
2021/08/22 02:22:54;;;;;;;2.57;2.30;;;20.50;99.90;;;;;;5055178;28;20714;-81
2021/08/22 02:25:21;;;;;;;4.50;3.00;;;20.50;99.90;;;;;;5054991;28;20578;-81
2021/08/22 02:27:47;;;;;;;2.93;2.63;;;20.60;99.90;;;;;;5054889;28;20945;-81
2021/08/22 02:30:13;;;;;;;4.37;2.80;;;20.50;99.90;;;;;;5037326;28;20631;-81
2021/08/22 02:32:39;;;;;;;3.20;2.90;;;20.60;99.90;;;;;;5054956;28;21011;-80
2021/08/22 02:35:07;;;;;;;3.40;3.10;;;20.60;99.90;;;;;;5054795;28;20912;-80
2021/08/22 02:37:34;;;;;;;3.00;2.70;;;20.60;99.90;;;;;;5037208;28;20597;-80
2021/08/22 02:39:59;;;;;;;3.20;2.90;;;20.60;99.90;;;;;;5054792;28;20579;-80
2021/08/22 02:42:25;;;;;;;3.30;3.00;;;20.60;99.90;;;;;;5054966;28;20579;-80
2021/08/22 02:44:51;;;;;;;4.13;3.73;;;20.70;99.90;;;;;;5054594;28;20173;-80
2021/08/22 02:47:17;;;;;;;3.10;2.60;;;20.70;99.90;;;;;;5036782;28;20914;-80
2021/08/22 02:49:43;;;;;;;3.53;3.23;;;20.70;99.90;;;;;;5053610;28;20674;-80
2021/08/22 02:52:10;;;;;;;6.33;4.70;;;20.80;99.90;;;;;;5054719;28;20187;-80
2021/08/22 02:54:36;;;;;;;3.93;3.43;;;20.80;99.90;;;;;;5040137;28;20626;-81
2021/08/22 02:57:02;;;;;;;4.77;4.30;;;20.80;99.90;;;;;;5054712;28;20560;-81
2021/08/22 02:59:28;;;;;;;5.03;3.13;;;20.80;99.90;;;;;;5036702;28;21176;-80
2021/08/22 03:01:53;;;;;;;4.20;3.87;;;20.80;99.90;;;;;;5054678;28;20567;-80
2021/08/22 03:04:19;;;;;;;4.33;3.93;;;20.80;99.90;;;;;;5054002;28;20184;-80
2021/08/22 03:06:45;;;;;;;4.20;3.80;;;20.90;99.90;;;;;;5036480;28;20165;-80
2021/08/22 03:09:11;;;;;;;4.80;4.30;;;20.90;99.90;;;;;;5054365;28;20324;-80
2021/08/22 03:11:37;;;;;;;5.13;4.03;;;20.90;99.90;;;;;;5054252;28;20624;-80
2021/08/22 03:14:03;;;;;;;4.73;4.33;;;20.90;99.90;;;;;;5054663;28;20574;-81
2021/08/22 03:16:29;;;;;;;4.83;4.43;;;20.90;99.90;;;;;;5053840;28;20922;-80
2021/08/22 03:18:55;;;;;;;4.90;4.00;;;20.90;99.90;;;;;;5053017;28;20606;-81
2021/08/22 03:21:20;;;;;;;3.80;3.50;;;20.90;99.90;;;;;;5054106;28;20161;-80
2021/08/22 03:23:46;;;;;;;5.53;5.03;;;20.90;99.90;;;;;;5036567;28;20227;-80
2021/08/22 03:26:12;;;;;;;5.53;5.03;;;20.90;99.90;;;;;;5019390;28;20173;-80
2021/08/22 03:28:38;;;;;;;4.57;4.17;;;20.90;99.90;;;;;;5036062;28;20615;-81
2021/08/22 03:31:04;;;;;;;4.30;3.97;;;20.90;99.90;;;;;;5040771;28;20169;-81
2021/08/22 03:33:29;;;;;;;5.93;5.00;;;20.90;99.90;;;;;;5053913;28;20176;-81
2021/08/22 03:35:55;;;;;;;5.20;4.70;;;20.90;99.90;;;;;;5053352;28;20922;-81
2021/08/22 03:38:21;;;;;;;5.13;4.63;;;20.90;99.90;;;;;;5053655;28;20196;-80
2021/08/22 03:40:47;;;;;;;5.03;4.53;;;20.90;99.90;;;;;;5053850;28;20576;-81
2021/08/22 03:43:13;;;;;;;5.50;5.00;;;20.90;99.90;;;;;;5035605;28;20702;-81
2021/08/22 03:45:39;;;;;;;5.70;5.20;;;20.90;99.90;;;;;;5053271;28;20164;-81
2021/08/22 03:48:05;;;;;;;4.90;4.20;;;20.90;99.90;;;;;;5053610;28;20653;-81
2021/08/22 03:50:31;;;;;;;6.63;4.73;;;20.90;99.90;;;;;;5035790;28;20609;-80
2021/08/22 03:52:56;;;;;;;5.60;5.10;;;20.90;99.90;;;;;;5035919;28;20567;-80
2021/08/22 03:55:22;;;;;;;6.50;5.90;;;20.90;99.90;;;;;;5053375;28;20658;-81
2021/08/22 03:57:48;;;;;;;7.27;5.60;;;20.90;99.90;;;;;;5054051;28;20216;-81
2021/08/22 04:00:15;;;;;;;6.47;5.90;;;20.90;99.90;;;;;;5057772;28;20552;-81
2021/08/22 04:02:41;;;;;;;6.27;5.80;;;20.90;99.90;;;;;;5053782;28;20170;-80
2021/08/22 04:05:32;;;;;;;7.50;6.87;;;20.80;99.90;;;;;;5018245;28;20575;-80
2021/08/22 04:07:59;;;;;;;7.57;6.07;;;20.80;99.90;;;;;;5058809;28;20587;-80
2021/08/22 04:10:26;;;;;;;5.50;5.00;;;20.80;99.90;;;;;;5053157;28;20607;-80
2021/08/22 04:12:53;;;;;;;7.83;6.83;;;20.80;99.90;;;;;;5053337;28;20563;-80
2021/08/22 04:15:18;;;;;;;8.07;7.27;;;20.80;99.90;;;;;;5052492;28;20614;-80
2021/08/22 04:17:44;;;;;;;8.03;7.27;;;20.80;99.90;;;;;;5052967;28;20974;-80
2021/08/22 04:20:10;;;;;;;9.37;7.17;;;20.80;99.90;;;;;;5052883;28;20176;-80
2021/08/22 04:22:37;;;;;;;7.97;7.20;;;20.80;99.90;;;;;;5053138;28;20192;-80
2021/08/22 04:25:08;;;;;;;7.37;6.67;;;20.80;99.90;;;;;;5018219;28;20954;-80
2021/08/22 04:27:34;;;;;;;8.60;7.70;;;20.80;99.90;;;;;;5052692;28;20599;-80
2021/08/22 04:30:01;;;;;;;8.43;7.53;;;20.80;99.90;;;;;;5052902;28;20637;-80
2021/08/22 04:32:26;;;;;;;8.67;7.77;;;20.80;99.90;;;;;;5052976;28;20568;-80
2021/08/22 04:34:52;;;;;;;8.83;7.67;;;20.80;99.90;;;;;;5052862;28;20568;-80
2021/08/22 04:37:18;;;;;;;9.60;8.63;;;20.80;99.90;;;;;;5052524;28;20173;-79
2021/08/22 04:39:44;;;;;;;10.10;9.10;;;20.80;99.90;;;;;;5053023;28;20208;-80
2021/08/22 04:42:10;;;;;;;10.27;9.27;;;20.80;99.90;;;;;;5034637;28;20571;-80
2021/08/22 04:44:36;;;;;;;9.43;8.43;;;20.80;99.90;;;;;;5055260;28;20609;-81
2021/08/22 04:47:05;;;;;;;10.40;8.57;;;20.80;99.90;;;;;;5052244;28;20567;-80
2021/08/22 04:49:31;;;;;;;9.53;8.57;;;20.80;99.90;;;;;;5052531;28;20201;-81
2021/08/22 04:51:56;;;;;;;9.30;8.40;;;20.80;99.90;;;;;;5034445;28;20714;-80
2021/08/22 04:54:23;;;;;;;8.80;7.77;;;20.80;99.90;;;;;;5052374;28;20574;-80
2021/08/22 04:56:49;;;;;;;10.80;9.80;;;20.80;99.90;;;;;;5052419;28;20249;-80
2021/08/22 04:59:14;;;;;;;9.40;8.50;;;20.80;99.90;;;;;;5052188;28;20595;-79
2021/08/22 05:01:40;;;;;;;12.27;8.73;;;20.80;99.90;;;;;;5034438;28;20185;-80
2021/08/22 05:04:06;;;;;;;10.57;8.60;;;20.80;99.90;;;;;;5034441;28;20520;-80
2021/08/22 05:06:31;;;;;;;12.20;9.30;;;20.80;99.90;;;;;;5052032;28;20183;-81
2021/08/22 05:08:57;;;;;;;9.63;8.37;;;20.80;99.90;;;;;;5034906;28;20193;-81
2021/08/22 05:11:22;;;;;;;8.33;7.63;;;20.80;99.90;;;;;;5036696;28;20259;-81
2021/08/22 05:13:48;;;;;;;9.33;8.43;;;20.80;99.90;;;;;;5054330;28;20284;-81
2021/08/22 05:16:14;;;;;;;9.10;8.30;;;20.80;99.90;;;;;;5056924;28;20188;-80
2021/08/22 05:18:40;;;;;;;14.83;8.37;;;20.80;99.90;;;;;;5057146;28;20192;-81
2021/08/22 05:21:05;;;;;;;9.07;8.17;;;20.80;99.90;;;;;;5041984;28;20175;-80
2021/08/22 05:23:31;;;;;;;8.63;7.80;;;20.90;99.90;;;;;;5051950;28;20652;-80
2021/08/22 05:25:57;;;;;;;8.43;7.53;;;20.90;99.90;;;;;;5051799;28;20489;-80
2021/08/22 05:28:24;;;;;;;8.37;7.57;;;20.80;99.90;;;;;;5035135;28;20625;-81
2021/08/22 05:30:50;;;;;;;11.17;8.33;;;20.80;99.90;;;;;;5037127;28;20208;-82
2021/08/22 05:33:17;;;;;;;9.13;8.33;;;20.80;99.90;;;;;;5019022;28;20587;-82
2021/08/22 05:35:42;;;;;;;8.63;7.90;;;20.80;99.90;;;;;;5035224;28;21366;-82
2021/08/22 05:38:08;;;;;;;9.97;8.97;;;20.80;99.90;;;;;;5018182;28;20256;-82
2021/08/22 05:40:35;;;;;;;8.80;7.97;;;20.90;99.90;;;;;;5056609;28;20173;-83
2021/08/22 05:43:00;;;;;;;8.17;7.47;;;20.80;99.90;;;;;;5055445;28;20974;-82
2021/08/22 05:45:26;;;;;;;9.47;8.60;;;20.90;99.90;;;;;;5017682;28;20579;-82
2021/08/22 05:47:52;;;;;;;8.30;7.50;;;20.90;99.90;;;;;;5034022;28;20189;-82
2021/08/22 05:50:18;;;;;;;8.37;7.57;;;21.00;99.90;;;;;;5051826;28;20192;-82
2021/08/22 05:52:43;;;;;;;8.87;7.60;;;21.00;99.90;;;;;;5001315;28;20256;-82
2021/08/22 05:55:10;;;;;;;7.70;6.90;;;21.10;99.90;;;;;;5052750;28;20165;-82
2021/08/22 05:57:37;;;;;;;8.23;7.43;;;21.20;99.90;;;;;;5036892;28;20185;-82
2021/08/22 06:00:04;;;;;;;7.97;7.27;;;21.30;99.90;;;;;;5052116;28;21039;-81
2021/08/22 06:02:38;;;;;;;8.80;7.90;;;21.30;99.90;;;;;;5035090;28;20913;-81
2021/08/22 06:05:05;;;;;;;7.43;6.73;;;21.40;99.90;;;;;;5051764;28;20627;-81
2021/08/22 06:07:31;;;;;;;8.07;7.27;;;21.50;99.90;;;;;;5052347;28;20631;-82
2021/08/22 06:09:58;;;;;;;8.33;7.53;;;21.60;99.90;;;;;;5053394;28;20630;-81
2021/08/22 06:12:24;;;;;;;6.80;6.20;;;21.70;99.90;;;;;;5034702;28;20552;-81
2021/08/22 06:14:50;;;;;;;8.10;7.00;;;21.80;99.90;;;;;;5033965;28;20935;-82
2021/08/22 06:17:15;;;;;;;7.87;7.00;;;22.00;99.90;;;;;;5033856;28;20534;-83
2021/08/22 06:19:41;;;;;;;8.57;6.37;;;22.20;99.90;;;;;;5051517;28;20168;-83
2021/08/22 06:22:07;;;;;;;7.73;6.67;;;22.30;99.90;;;;;;5051787;28;20232;-84
2021/08/22 06:24:33;;;;;;;7.53;6.60;;;22.30;99.90;;;;;;5051483;28;20169;-84
2021/08/22 06:27:02;;;;;;;9.03;6.57;;;22.40;99.90;;;;;;5033946;28;20177;-84
2021/08/22 06:29:28;;;;;;;6.23;5.67;;;22.40;99.90;;;;;;5033639;28;20635;-83
2021/08/22 06:31:54;;;;;;;6.10;5.50;;;22.50;99.90;;;;;;5017110;28;20586;-84
2021/08/22 06:34:19;;;;;;;5.93;5.23;;;22.50;99.90;;;;;;5021004;28;20165;-84
2021/08/22 06:36:48;;;;;;;8.23;7.43;;;22.60;99.90;;;;;;5033493;28;20166;-84
2021/08/22 06:39:14;;;;;;;4.97;4.50;;;22.80;99.90;;;;;;5033337;28;20607;-84
2021/08/22 06:41:40;;;;;;;5.20;4.53;;;23.00;99.90;;;;;;5051365;28;21115;-84
2021/08/22 06:44:05;;;;;;;4.83;4.43;;;23.20;99.90;;;;;;5017341;28;20196;-84
2021/08/22 06:46:31;;;;;;;4.73;4.33;;;23.50;99.90;;;;;;5016360;28;20173;-84
2021/08/22 06:48:57;;;;;;;4.37;3.97;;;23.60;99.90;;;;;;5051001;28;20181;-84
2021/08/22 06:51:23;;;;;;;7.30;3.97;;;23.70;99.90;;;;;;5051086;28;20560;-84
2021/08/22 06:53:50;;;;;;;4.43;4.03;;;23.70;99.90;;;;;;5053491;28;20594;-84
2021/08/22 06:56:16;;;;;;;4.50;3.87;;;23.70;99.90;;;;;;5036682;28;20184;-84
2021/08/22 06:58:41;;;;;;;7.53;4.30;;;23.60;99.90;;;;;;5054928;28;20729;-83
2021/08/22 07:01:08;;;;;;;3.50;3.20;;;23.60;99.90;;;;;;5072550;28;20575;-85
2021/08/22 07:03:33;;;;;;;4.83;3.80;;;23.60;99.90;;;;;;5022245;28;20181;-80
2021/08/22 07:05:59;;;;;;;4.60;4.00;;;23.60;99.90;;;;;;5036328;28;20654;-80
2021/08/22 07:08:25;;;;;;;4.60;3.60;;;23.70;99.90;;;;;;5054564;28;20185;-81
2021/08/22 07:10:50;;;;;;;3.50;3.20;;;23.70;99.90;;;;;;5058741;28;20262;-80
2021/08/22 07:13:16;;;;;;;3.73;3.40;;;23.70;99.90;;;;;;5033547;28;20182;-80
2021/08/22 07:15:42;;;;;;;3.43;3.13;;;23.80;99.90;;;;;;5034124;28;20206;-80
2021/08/22 07:18:08;;;;;;;4.23;3.83;;;23.90;99.90;;;;;;5034201;28;20201;-81
2021/08/22 07:20:34;;;;;;;4.20;3.33;;;23.90;99.90;;;;;;5016425;28;20584;-81
2021/08/22 07:23:00;;;;;;;4.00;3.20;;;24.00;99.90;;;;;;5034224;28;20467;-80
2021/08/22 07:25:26;;;;;;;4.03;2.83;;;24.10;99.90;;;;;;5033415;28;20190;-80
2021/08/22 07:27:52;;;;;;;5.50;3.30;;;24.20;99.90;;;;;;5032724;28;20800;-80
2021/08/22 07:30:18;;;;;;;3.77;2.83;;;24.20;99.90;;;;;;5016150;28;20185;-80
2021/08/22 07:32:44;;;;;;;3.50;3.07;;;24.30;99.90;;;;;;5033618;28;20603;-80
2021/08/22 07:35:10;;;;;;;3.07;2.77;;;24.30;99.90;;;;;;5015771;28;20983;-80
2021/08/22 07:37:36;;;;;;;3.87;2.70;;;24.30;99.90;;;;;;5032865;28;20190;-80
2021/08/22 07:40:02;;;;;;;2.70;2.43;;;24.40;99.90;;;;;;5032296;28;20221;-80
2021/08/22 07:42:28;;;;;;;3.47;2.83;;;24.50;99.90;;;;;;5033581;28;20583;-80
2021/08/22 07:44:53;;;;;;;3.13;2.80;;;24.70;99.90;;;;;;5033436;28;20572;-80
2021/08/22 07:47:19;;;;;;;2.97;2.67;;;25.10;99.90;;;;;;5019520;28;20177;-80
2021/08/22 07:49:45;;;;;;;2.00;1.80;;;25.50;99.90;;;;;;5019115;28;20208;-80
2021/08/22 07:52:11;;;;;;;3.90;2.87;;;26.00;99.90;;;;;;5047411;28;20162;-82
2021/08/22 07:54:37;;;;;;;3.73;2.27;;;26.30;99.90;;;;;;5052809;28;20568;-82
2021/08/22 07:57:03;;;;;;;2.93;2.43;;;26.60;99.90;;;;;;5036453;28;20177;-82
2021/08/22 07:59:28;;;;;;;3.10;2.30;;;26.80;99.90;;;;;;5039179;28;20210;-81
2021/08/22 08:01:54;;;;;;;3.17;2.07;;;26.80;99.90;;;;;;5056917;28;20576;-80
2021/08/22 08:04:20;;;;;;;2.00;1.70;;;26.70;99.90;;;;;;5050945;28;20579;-81
2021/08/22 08:06:46;;;;;;;1.77;1.40;;;26.60;99.90;;;;;;5041623;28;20611;-80
2021/08/22 08:09:12;;;;;;;3.33;1.70;;;26.40;99.90;;;;;;5025843;28;20576;-81
2021/08/22 08:11:38;;;;;;;2.83;1.60;;;26.20;99.90;;;;;;5016139;28;20576;-81
2021/08/22 08:14:04;;;;;;;2.50;1.60;;;25.90;99.90;;;;;;5033254;28;20200;-81
2021/08/22 08:16:30;;;;;;;3.63;2.30;;;25.70;99.90;;;;;;5033107;28;20573;-81
2021/08/22 08:18:56;;;;;;;3.20;2.30;;;25.40;99.90;;;;;;5032932;28;20196;-81
2021/08/22 08:21:22;;;;;;;2.40;1.97;;;25.10;99.90;;;;;;5033500;28;20564;-80
2021/08/22 08:23:48;;;;;;;5.13;2.63;;;24.80;99.90;;;;;;5035519;28;20166;-80
2021/08/22 08:26:14;;;;;;;4.10;2.47;;;24.60;99.90;;;;;;5033595;28;20653;-80
2021/08/22 08:28:40;;;;;;;2.87;2.40;;;24.30;99.90;;;;;;4998782;28;20624;-80
2021/08/22 08:31:06;;;;;;;2.40;1.90;;;24.20;99.90;;;;;;5015612;28;20666;-80
2021/08/22 08:33:32;;;;;;;2.70;2.50;;;24.00;99.90;;;;;;4998884;28;20580;-80
2021/08/22 08:35:57;;;;;;;2.67;2.17;;;23.80;99.90;;;;;;5031423;28;20922;-80
2021/08/22 08:38:23;;;;;;;3.13;2.83;;;23.70;99.90;;;;;;5032985;28;20596;-80
2021/08/22 08:40:49;;;;;;;2.93;2.23;;;23.60;99.90;;;;;;5032809;28;20188;-80
2021/08/22 08:43:16;;;;;;;2.97;2.63;;;23.50;99.90;;;;;;5015498;28;20208;-80
2021/08/22 08:45:51;;;;;;;3.43;3.13;;;23.60;99.90;;;;;;4998361;28;20182;-82
2021/08/22 08:48:39;;;;;;;3.30;2.83;;;23.60;99.90;;;;;;5015127;28;20612;-80
2021/08/22 08:51:25;;;;;;;2.60;2.40;;;23.70;99.90;;;;;;5032040;28;20640;-80
2021/08/22 08:54:21;;;;;;;2.90;2.17;;;23.90;99.90;;;;;;4988367;28;20619;-80
2021/08/22 08:56:47;;;;;;;6.83;2.93;;;24.00;99.90;;;;;;5032169;28;20607;-80
2021/08/22 08:59:13;;;;;;;3.20;2.90;;;24.30;99.90;;;;;;5014236;28;20612;-81
2021/08/22 09:01:40;;;;;;;7.23;3.77;;;24.50;99.90;;;;;;5017831;28;20573;-80
2021/08/22 09:04:16;;;;;;;4.07;2.83;;;24.80;99.90;;;;;;5031848;28;20189;-80
2021/08/22 09:07:23;;;;;;;3.27;2.73;;;25.50;99.90;;;;;;5029383;28;20576;-80
2021/08/22 09:10:17;;;;;;;3.73;2.97;;;26.20;99.90;;;;;;4996662;28;20665;-80
2021/08/22 09:13:03;;;;;;;3.23;2.93;;;27.10;99.90;;;;;;5012471;28;20901;-80
2021/08/22 09:15:44;;;;;;;3.40;3.10;;;28.00;99.90;;;;;;5029453;28;20569;-81
2021/08/22 09:18:50;;;;;;;3.67;3.37;;;28.80;99.90;;;;;;5030854;28;20600;-81
2021/08/22 09:21:53;;;;;;;7.00;2.70;;;29.20;99.90;;;;;;5014533;28;20588;-80
2021/08/22 09:24:31;;;;;;;2.80;2.50;;;29.30;99.90;;;;;;5030927;28;20576;-80
2021/08/22 09:27:34;;;;;;;3.53;3.23;;;29.20;99.90;;;;;;5012821;28;20588;-82
2021/08/22 09:30:37;;;;;;;3.70;3.30;;;29.00;99.90;;;;;;5030926;28;20616;-81
2021/08/22 09:33:23;;;;;;;3.50;3.20;;;29.00;99.90;;;;;;5030556;28;20566;-83
2021/08/22 09:36:27;;;;;;;4.27;2.50;;;29.10;99.90;;;;;;5031954;28;20562;-82
2021/08/22 09:39:26;;;;;;;3.73;2.90;;;28.90;99.90;;;;;;5035195;28;20612;-81
2021/08/22 09:42:23;;;;;;;2.67;2.43;;;28.90;99.90;;;;;;5032625;28;20601;-82
2021/08/22 09:45:27;;;;;;;3.03;2.50;;;29.50;99.90;;;;;;5004248;28;20666;-82
2021/08/22 09:48:30;;;;;;;2.30;2.10;;;30.50;99.90;;;;;;5012179;28;20589;-82
2021/08/22 09:51:02;;;;;;;4.00;3.17;;;31.20;99.90;;;;;;4978812;28;20624;-83
2021/08/22 09:54:00;;;;;;;2.57;2.13;;;31.50;99.90;;;;;;4994380;28;20632;-83
2021/08/22 09:57:03;;;;;;;3.60;3.03;;;31.50;99.90;;;;;;5008381;28;20589;-84
2021/08/22 09:59:53;;;;;;;2.90;2.60;;;31.20;99.90;;;;;;4978134;28;20957;-85
2021/08/22 10:03:00;;;;;;;2.40;2.20;;;30.80;99.90;;;;;;5011517;28;20608;-83
2021/08/22 10:05:48;;;;;;;3.23;2.90;;;30.50;99.90;;;;;;4974760;28;20663;-83
2021/08/22 10:08:35;;;;;;;4.43;4.03;;;30.20;99.90;;;;;;5025727;28;20630;-82
2021/08/22 10:11:21;;;;;;;4.30;3.83;;;29.70;99.90;;;;;;5016029;28;20622;-82
2021/08/22 10:13:53;;;;;;;4.13;3.53;;;29.30;99.90;;;;;;5023480;28;20680;-81
2021/08/22 10:16:19;;;;;;;4.03;3.63;;;28.80;99.90;;;;;;5025711;28;20623;-81
2021/08/22 10:18:45;;;;;;;3.30;2.80;;;28.50;99.90;;;;;;5050532;28;20642;-81
2021/08/22 10:21:11;;;;;;;5.47;3.00;;;28.10;99.90;;;;;;5018413;28;20587;-80
2021/08/22 10:23:42;;;;;;;5.23;2.77;;;27.80;99.90;;;;;;5033225;28;20260;-82
2021/08/22 10:26:48;;;;;;;3.50;3.20;;;27.70;99.90;;;;;;5052365;28;20563;-82
2021/08/22 10:29:33;;;;;;;3.13;2.83;;;27.70;99.90;;;;;;5057227;28;20666;-81
2021/08/22 10:31:58;;;;;;;3.77;3.37;;;27.90;99.90;;;;;;5058843;28;20565;-81
2021/08/22 10:34:37;;;;;;;4.30;3.17;;;28.10;99.90;;;;;;5041383;28;20662;-81
2021/08/22 10:37:29;;;;;;;2.23;2.03;;;28.50;99.90;;;;;;5054755;28;20207;-87
2021/08/22 10:39:58;;;;;;;2.27;1.93;;;29.00;99.90;;;;;;5037485;28;20578;-88
2021/08/22 10:42:27;;;;;;;2.27;1.87;;;29.60;99.90;;;;;;5021114;28;20578;-84
2021/08/22 10:44:53;;;;;;;2.67;1.90;;;30.20;99.90;;;;;;5053615;28;20574;-84
2021/08/22 10:47:19;;;;;;;2.50;2.30;;;30.60;99.90;;;;;;5037262;28;20594;-84
2021/08/22 10:49:54;;;;;;;5.90;2.10;;;30.90;99.90;;;;;;5036785;28;21438;-85
2021/08/22 10:52:22;;;;;;;2.87;1.77;;;31.00;99.90;;;;;;5022032;28;20168;-84
2021/08/22 10:55:12;;;;;;;3.17;1.83;;;31.00;99.90;;;;;;5038172;28;20937;-84
2021/08/22 10:57:49;;;;;;;4.30;2.00;;;30.90;99.90;;;;;;5037778;28;20614;-82
2021/08/22 11:00:19;;;;;;;2.90;1.93;;;30.80;98.80;;;;;;5036989;28;20572;-83
2021/08/22 11:02:45;;;;;;;3.33;2.00;;;30.90;99.90;;;;;;5020706;28;20617;-84
2021/08/22 11:05:14;;;;;;;2.53;2.30;;;30.90;99.90;;;;;;5003689;28;20591;-83
2021/08/22 11:07:39;;;;;;;2.90;2.30;;;30.90;99.90;;;;;;5047664;28;20196;-83
2021/08/22 11:10:12;;;;;;;2.57;2.23;;;30.90;99.70;;;;;;5036155;28;20622;-83
2021/08/22 11:12:40;;;;;;;3.80;2.30;;;30.80;96.30;;;;;;5002794;28;20187;-82
2021/08/22 11:15:21;;;;;;;2.70;2.50;;;30.70;97.60;;;;;;5000674;28;20579;-81
2021/08/22 11:17:52;;;;;;;2.63;1.90;;;30.60;96.60;;;;;;5017159;28;20604;-83
2021/08/22 11:20:20;;;;;;;2.90;2.23;;;30.50;96.40;;;;;;4984434;28;20620;-82
2021/08/22 11:23:02;;;;;;;4.33;2.10;;;30.50;96.20;;;;;;5017203;28;20592;-81
2021/08/22 11:25:34;;;;;;;2.10;1.30;;;30.40;96.10;;;;;;5051280;28;20691;-81
2021/08/22 11:28:05;;;;;;;2.30;1.70;;;30.40;95.80;;;;;;5035002;28;20621;-80
2021/08/22 11:30:31;;;;;;;4.40;2.43;;;30.40;95.20;;;;;;4998995;28;20645;-82
2021/08/22 11:32:59;;;;;;;3.03;2.10;;;30.30;94.90;;;;;;5001035;28;20577;-82
2021/08/22 11:35:26;;;;;;;4.77;3.30;;;30.40;95.30;;;;;;4994191;28;20588;-83
2021/08/22 11:37:53;;;;;;;4.70;2.27;;;30.70;95.70;;;;;;5018360;28;20649;-82
2021/08/22 11:40:23;;;;;;;2.83;2.10;;;31.00;94.50;;;;;;5052534;28;20629;-83
2021/08/22 11:42:57;;;;;;;2.80;2.23;;;31.30;94.50;;;;;;5015799;28;20595;-82
2021/08/22 11:45:29;;;;;;;4.20;3.07;;;31.60;94.20;;;;;;5015599;28;20593;-83
2021/08/22 11:47:59;;;;;;;4.37;2.20;;;32.00;93.90;;;;;;5015143;28;20633;-81
2021/08/22 11:50:29;;;;;;;2.73;1.97;;;32.30;93.50;;;;;;5026556;28;20627;-80
2021/08/22 11:52:59;;;;;;;3.03;2.17;;;32.60;93.50;;;;;;5062061;28;21118;-80
2021/08/22 11:55:33;;;;;;;3.30;2.73;;;32.90;92.10;;;;;;5026250;28;20577;-80
2021/08/22 11:58:20;;;;;;;2.73;1.53;;;32.90;90.60;;;;;;5032012;28;20653;-81
2021/08/22 12:00:46;;;;;;;3.77;2.07;;;32.80;87.90;;;;;;5049003;28;20599;-83
2021/08/22 12:03:15;;;;;;;3.13;2.07;;;32.70;87.20;;;;;;5062515;28;21072;-81
2021/08/22 12:06:01;;;;;;;6.10;2.23;;;32.40;85.80;;;;;;5064554;28;20556;-81
2021/08/22 12:08:31;;;;;;;2.00;1.43;;;32.20;85.00;;;;;;5070362;28;20595;-81
2021/08/22 12:11:11;;;;;;;2.33;1.77;;;31.80;83.20;;;;;;5069113;28;20675;-82
2021/08/22 12:13:40;;;;;;;3.10;2.00;;;31.40;83.10;;;;;;5035215;28;20584;-80
2021/08/22 12:16:31;;;;;;;2.77;1.73;;;31.00;82.90;;;;;;5013233;28;20568;-82
2021/08/22 12:19:17;;;;;;;4.00;1.93;;;30.60;82.70;;;;;;5049827;28;20680;-81
2021/08/22 12:21:43;;;;;;;3.90;2.33;;;30.30;83.50;;;;;;5031871;28;20892;-81
2021/08/22 12:24:24;;;;;;;3.50;2.40;;;30.10;84.30;;;;;;5059090;28;20602;-82
2021/08/22 12:26:57;;;;;;;6.70;1.60;;;29.90;84.40;;;;;;5049156;28;20609;-79
2021/08/22 12:29:34;;;;;;;3.60;1.40;;;29.80;85.40;;;;;;5053814;28;20647;-81
2021/08/22 12:32:08;;;;;;;2.23;1.77;;;29.70;85.20;;;;;;5054359;28;20666;-83
2021/08/22 12:34:34;;;;;;;2.60;1.70;;;29.70;86.50;;;;;;5041695;28;20670;-81
2021/08/22 12:37:08;;;;;;;2.50;2.30;;;29.70;87.50;;;;;;5057739;28;21035;-83
2021/08/22 12:39:34;;;;;;;4.03;2.40;;;29.70;85.00;;;;;;5062664;28;20203;-80
2021/08/22 12:42:00;;;;;;;3.27;1.50;;;29.70;87.10;;;;;;5030160;28;20602;-81
2021/08/22 12:44:31;;;;;;;2.03;1.37;;;29.60;86.20;;;;;;5045982;28;20575;-81
2021/08/22 12:47:04;;;;;;;3.83;1.27;;;29.60;86.60;;;;;;5032146;28;20189;-81
2021/08/22 12:49:34;;;;;;;2.90;1.20;;;29.40;85.20;;;;;;5009490;28;20656;-81
2021/08/22 12:52:09;;;;;;;2.77;1.83;;;29.30;86.50;;;;;;5041344;28;21021;-82
2021/08/22 12:54:38;;;;;;;2.37;1.37;;;29.20;87.20;;;;;;4998960;28;20580;-83
2021/08/22 12:57:10;;;;;;;4.03;1.70;;;29.20;87.50;;;;;;4999167;28;20576;-83
2021/08/22 12:59:39;;;;;;;2.70;1.87;;;29.10;87.40;;;;;;5016025;28;21224;-81
2021/08/22 13:02:08;;;;;;;2.60;2.17;;;29.10;87.40;;;;;;4999159;28;20932;-84